Time;durP1;ratioP1;P1;durP2;ratioP2;P2;SDS_P1;SDS_P2;PMS_P1;PMS_P2;Temp;Humidity;BMP_temperature;BMP_pressure;BME280_temperature;BME280_humidity;BME280_pressure;Samples;Min_cycle;Max_cycle;Signal;HPM_P1;HPM_P2
2021/06/02 00:02:15;;;;;;;4.80;4.40;;;;;;;;;;5031560;28;20878;-54
2021/06/02 00:04:45;;;;;;;7.13;4.87;;;;;;;;;;5031935;28;20388;-54
2021/06/02 00:07:14;;;;;;;7.60;5.33;;;;;;;;;;5032110;28;20400;-53
2021/06/02 00:09:40;;;;;;;6.37;5.87;;;;;;;;;;5031553;28;20451;-53
2021/06/02 00:12:07;;;;;;;5.40;5.00;;;;;;;;;;5031886;28;20391;-53
2021/06/02 00:14:33;;;;;;;6.00;5.40;;;;;;;;;;5031398;28;20406;-54
2021/06/02 00:17:00;;;;;;;6.13;5.53;;;;;;;;;;5031727;28;20406;-53
2021/06/02 00:19:26;;;;;;;8.47;5.60;;;;;;;;;;5031342;28;20462;-53
2021/06/02 00:21:53;;;;;;;7.27;6.57;;;;;;;;;;5031293;28;20417;-54
2021/06/02 00:24:19;;;;;;;9.23;6.20;;;;;;;;;;5031117;28;20493;-53
2021/06/02 00:26:45;;;;;;;8.00;5.93;;;;;;;;;;5031465;28;20772;-54
2021/06/02 00:29:12;;;;;;;7.40;5.47;;;;;;;;;;5031132;28;20936;-54
2021/06/02 00:31:39;;;;;;;10.30;5.43;;;;;;;;;;5031208;28;20791;-53
2021/06/02 00:34:06;;;;;;;5.63;5.13;;;;;;;;;;5030896;28;20472;-53
2021/06/02 00:36:32;;;;;;;6.83;5.67;;;;;;;;;;5030112;28;20451;-54
2021/06/02 00:38:58;;;;;;;11.43;5.50;;;;;;;;;;5031042;28;20958;-54
2021/06/02 00:41:24;;;;;;;5.87;5.20;;;;;;;;;;5031335;28;20409;-53
2021/06/02 00:43:50;;;;;;;6.60;5.47;;;;;;;;;;5030975;28;20493;-54
2021/06/02 00:46:19;;;;;;;10.43;5.63;;;;;;;;;;5031026;28;20417;-54
2021/06/02 00:48:45;;;;;;;6.10;5.50;;;;;;;;;;5031049;28;20945;-54
2021/06/02 00:51:12;;;;;;;6.70;5.20;;;;;;;;;;5031020;28;20381;-54
2021/06/02 00:53:38;;;;;;;8.50;5.87;;;;;;;;;;5031019;28;20375;-53
2021/06/02 00:56:08;;;;;;;6.10;4.90;;;;;;;;;;5030990;28;20373;-53
2021/06/02 00:58:39;;;;;;;10.70;5.43;;;;;;;;;;5031002;28;20452;-53
2021/06/02 01:01:06;;;;;;;6.10;5.00;;;;;;;;;;5030582;28;20402;-53
2021/06/02 01:03:34;;;;;;;12.07;5.60;;;;;;;;;;5030080;28;20876;-53
2021/06/02 01:06:01;;;;;;;6.23;5.40;;;;;;;;;;5030333;28;20388;-53
2021/06/02 01:08:29;;;;;;;8.10;4.73;;;;;;;;;;5030726;28;20435;-54
2021/06/02 01:10:55;;;;;;;6.87;6.30;;;;;;;;;;5030929;28;20402;-53
2021/06/02 01:13:21;;;;;;;6.03;5.43;;;;;;;;;;5030683;28;20450;-54
2021/06/02 01:15:48;;;;;;;6.10;5.50;;;;;;;;;;5030736;28;20380;-53
2021/06/02 01:18:14;;;;;;;8.77;5.90;;;;;;;;;;5030755;28;20404;-54
2021/06/02 01:20:40;;;;;;;9.80;5.40;;;;;;;;;;5030638;28;20373;-53
2021/06/02 01:23:08;;;;;;;10.40;6.60;;;;;;;;;;5030420;28;20899;-53
2021/06/02 01:25:34;;;;;;;12.60;7.37;;;;;;;;;;5030606;28;20413;-53
2021/06/02 01:28:01;;;;;;;12.40;7.30;;;;;;;;;;5030708;28;20824;-54
2021/06/02 01:30:27;;;;;;;11.10;7.70;;;;;;;;;;5030603;28;20402;-53
2021/06/02 01:33:12;;;;;;;9.60;7.33;;;;;;;;;;5030399;28;20402;-53
2021/06/02 01:35:58;;;;;;;10.83;6.90;;;;;;;;;;5030465;28;20436;-53
2021/06/02 01:38:24;;;;;;;10.13;6.53;;;;;;;;;;5030685;28;20429;-54
2021/06/02 01:41:09;;;;;;;13.73;7.40;;;;;;;;;;5031009;28;20794;-54
2021/06/02 01:43:58;;;;;;;9.53;7.60;;;;;;;;;;5030520;28;20408;-53
2021/06/02 01:46:30;;;;;;;18.03;7.27;;;;;;;;;;5029447;28;20442;-53
2021/06/02 01:49:08;;;;;;;9.80;6.60;;;;;;;;;;5030754;28;20507;-53
2021/06/02 01:51:52;;;;;;;12.47;6.80;;;;;;;;;;5030496;28;20894;-53
2021/06/02 01:54:37;;;;;;;9.60;7.27;;;;;;;;;;5030797;28;20482;-53
2021/06/02 01:57:22;;;;;;;12.03;7.70;;;;;;;;;;5034458;28;20913;-53
2021/06/02 02:00:10;;;;;;;11.00;7.30;;;;;;;;;;5034390;28;20479;-54
2021/06/02 02:02:43;;;;;;;7.13;6.03;;;;;;;;;;5034004;28;20982;-53
2021/06/02 02:05:16;;;;;;;6.87;5.83;;;;;;;;;;5034333;28;20376;-54
2021/06/02 02:07:42;;;;;;;7.33;5.53;;;;;;;;;;5034104;28;20444;-53
2021/06/02 02:10:27;;;;;;;6.63;5.53;;;;;;;;;;5034142;28;20446;-54
2021/06/02 02:13:08;;;;;;;11.07;5.77;;;;;;;;;;5033754;28;20434;-53
2021/06/02 02:15:48;;;;;;;9.83;5.80;;;;;;;;;;5035099;28;20394;-53
2021/06/02 02:18:21;;;;;;;8.20;5.50;;;;;;;;;;5034998;28;20928;-52
2021/06/02 02:20:53;;;;;;;6.77;6.17;;;;;;;;;;5035105;28;20414;-53
2021/06/02 02:23:36;;;;;;;8.70;5.53;;;;;;;;;;5034733;28;20384;-52
2021/06/02 02:26:40;;;;;;;14.83;6.20;;;;;;;;;;5034924;28;20429;-52
2021/06/02 02:29:24;;;;;;;23.67;6.37;;;;;;;;;;5012355;28;21232;-53
2021/06/02 02:31:50;;;;;;;18.47;6.90;;;;;;;;;;5012210;28;20369;-53
2021/06/02 02:34:22;;;;;;;14.73;6.60;;;;;;;;;;5025245;28;20437;-53
2021/06/02 02:36:54;;;;;;;7.23;5.87;;;;;;;;;;5034473;28;20536;-53
2021/06/02 02:39:38;;;;;;;9.40;6.17;;;;;;;;;;5017036;28;20437;-54
2021/06/02 02:42:17;;;;;;;7.23;6.53;;;;;;;;;;5034294;28;20552;-53
2021/06/02 02:45:02;;;;;;;7.60;5.97;;;;;;;;;;5034613;28;20398;-53
2021/06/02 02:47:47;;;;;;;6.90;6.30;;;;;;;;;;5034135;28;20832;-52
2021/06/02 02:50:31;;;;;;;6.47;5.50;;;;;;;;;;5034192;28;20869;-54
2021/06/02 02:53:19;;;;;;;6.60;6.00;;;;;;;;;;5033657;28;20951;-53
2021/06/02 02:55:47;;;;;;;7.60;5.53;;;;;;;;;;5034378;28;20398;-53
2021/06/02 02:58:22;;;;;;;10.80;6.70;;;;;;;;;;5033830;28;20468;-53
2021/06/02 03:00:57;;;;;;;6.80;5.63;;;;;;;;;;5034105;28;20428;-53
2021/06/02 03:03:29;;;;;;;9.00;6.50;;;;;;;;;;5033794;28;20420;-52
2021/06/02 03:06:06;;;;;;;9.23;6.70;;;;;;;;;;5033983;28;20397;-52
2021/06/02 03:08:36;;;;;;;6.23;5.63;;;;;;;;;;5033699;28;20540;-53
2021/06/02 03:11:14;;;;;;;10.13;7.50;;;;;;;;;;5033936;28;20458;-53
2021/06/02 03:14:00;;;;;;;7.57;6.10;;;;;;;;;;5033483;28;20395;-53
2021/06/02 03:16:30;;;;;;;6.87;6.27;;;;;;;;;;5034479;28;20493;-53
2021/06/02 03:19:05;;;;;;;7.17;6.47;;;;;;;;;;5033804;28;20414;-53
2021/06/02 03:21:53;;;;;;;9.23;5.77;;;;;;;;;;5033601;28;20413;-53
2021/06/02 03:24:28;;;;;;;7.30;5.93;;;;;;;;;;5033717;28;20406;-52
2021/06/02 03:27:09;;;;;;;8.47;6.17;;;;;;;;;;5033806;28;20459;-53
2021/06/02 03:29:41;;;;;;;8.27;6.67;;;;;;;;;;5033360;28;20480;-53
2021/06/02 03:32:26;;;;;;;11.10;7.50;;;;;;;;;;5033431;28;20394;-53
2021/06/02 03:35:01;;;;;;;8.20;6.63;;;;;;;;;;5033354;28;20494;-52
2021/06/02 03:37:36;;;;;;;14.03;7.20;;;;;;;;;;5033897;28;20373;-54
2021/06/02 03:40:10;;;;;;;11.33;6.70;;;;;;;;;;5033541;28;20417;-52
2021/06/02 03:42:47;;;;;;;9.30;6.77;;;;;;;;;;5033616;28;20409;-52
2021/06/02 03:45:32;;;;;;;9.07;6.63;;;;;;;;;;5033349;28;20408;-52
2021/06/02 03:48:13;;;;;;;7.67;6.60;;;;;;;;;;5033569;28;20394;-52
2021/06/02 03:50:57;;;;;;;8.23;6.40;;;;;;;;;;5033538;28;20426;-52
2021/06/02 03:53:39;;;;;;;7.37;6.47;;;;;;;;;;5033315;28;20401;-54
2021/06/02 03:56:23;;;;;;;14.83;8.27;;;;;;;;;;5033528;28;20377;-52
2021/06/02 03:59:01;;;;;;;19.83;8.20;;;;;;;;;;5033234;28;20429;-52
2021/06/02 04:01:30;;;;;;;13.90;8.37;;;;;;;;;;5033162;28;20384;-52
2021/06/02 04:04:01;;;;;;;15.77;7.63;;;;;;;;;;5032941;28;20406;-53
2021/06/02 04:06:44;;;;;;;12.23;7.80;;;;;;;;;;5033064;28;20484;-53
2021/06/02 04:09:20;;;;;;;10.10;7.67;;;;;;;;;;5032795;28;20453;-54
2021/06/02 04:12:05;;;;;;;14.63;7.00;;;;;;;;;;5032997;28;20410;-53
2021/06/02 04:14:33;;;;;;;9.97;7.37;;;;;;;;;;5032809;28;20764;-53
2021/06/02 04:17:00;;;;;;;8.70;7.63;;;;;;;;;;5032491;28;20477;-52
2021/06/02 04:19:27;;;;;;;13.03;8.03;;;;;;;;;;5032354;28;20984;-54
2021/06/02 04:21:55;;;;;;;10.83;7.63;;;;;;;;;;5031980;28;20410;-53
2021/06/02 04:24:23;;;;;;;9.37;7.00;;;;;;;;;;5032953;28;20410;-53
2021/06/02 04:26:51;;;;;;;12.53;7.57;;;;;;;;;;5032743;28;20443;-53
2021/06/02 04:29:18;;;;;;;7.70;6.87;;;;;;;;;;5032320;28;20446;-52
2021/06/02 04:31:55;;;;;;;11.93;7.57;;;;;;;;;;5032029;28;20434;-52
2021/06/02 04:34:22;;;;;;;24.47;8.97;;;;;;;;;;5032135;28;20417;-53
2021/06/02 04:36:50;;;;;;;8.90;6.70;;;;;;;;;;5032056;28;20493;-53
2021/06/02 04:39:17;;;;;;;11.43;7.33;;;;;;;;;;5032115;28;20422;-52
2021/06/02 04:41:43;;;;;;;13.07;7.60;;;;;;;;;;5031833;28;20442;-53
2021/06/02 04:44:12;;;;;;;10.13;7.27;;;;;;;;;;5032199;28;20579;-53
2021/06/02 04:46:38;;;;;;;8.37;6.50;;;;;;;;;;5032316;28;20425;-53
2021/06/02 04:49:04;;;;;;;12.23;7.80;;;;;;;;;;5032184;28;20461;-52
2021/06/02 04:51:58;;;;;;;15.07;8.77;;;;;;;;;;5031739;28;20482;-52
2021/06/02 04:54:44;;;;;;;16.23;10.00;;;;;;;;;;5032170;28;20441;-53
2021/06/02 04:57:13;;;;;;;18.53;11.00;;;;;;;;;;5031934;28;20405;-54
2021/06/02 04:59:55;;;;;;;25.57;11.50;;;;;;;;;;5032060;28;20440;-53
2021/06/02 05:02:40;;;;;;;22.67;13.40;;;;;;;;;;5031684;28;20879;-54
2021/06/02 05:05:06;;;;;;;23.60;11.47;;;;;;;;;;5031979;28;20368;-53
2021/06/02 05:07:47;;;;;;;18.07;9.90;;;;;;;;;;5031659;28;20437;-52
2021/06/02 05:10:31;;;;;;;11.90;8.80;;;;;;;;;;5031749;28;20443;-53
2021/06/02 05:13:09;;;;;;;9.90;7.90;;;;;;;;;;5031570;28;20379;-54
2021/06/02 05:15:51;;;;;;;10.73;7.67;;;;;;;;;;5031874;28;21097;-53
2021/06/02 05:18:25;;;;;;;11.30;6.90;;;;;;;;;;5031720;28;20484;-53
2021/06/02 05:23:35;;;;;;;9.10;7.97;;;;;;;;;;5031720;28;20935;-53
2021/06/02 05:26:20;;;;;;;8.53;7.73;;;;;;;;;;5032127;28;20409;-53
2021/06/02 05:29:04;;;;;;;15.10;7.13;;;;;;;;;;5031480;28;20466;-54
2021/06/02 05:31:55;;;;;;;11.47;6.73;;;;;;;;;;5034125;28;20434;-53
2021/06/02 05:34:24;;;;;;;11.70;8.60;;;;;;;;;;5035803;28;20464;-53
2021/06/02 05:37:16;;;;;;;8.33;7.53;;;;;;;;;;5035532;28;20460;-53
2021/06/02 05:39:55;;;;;;;9.43;7.47;;;;;;;;;;5034790;28;20500;-54
2021/06/02 05:42:33;;;;;;;10.00;7.23;;;;;;;;;;5035517;28;20393;-53
2021/06/02 05:45:05;;;;;;;10.43;7.97;;;;;;;;;;5035756;28;20475;-53
2021/06/02 05:47:50;;;;;;;11.87;7.40;;;;;;;;;;5046499;28;20409;-53
2021/06/02 05:50:19;;;;;;;10.90;7.73;;;;;;;;;;5038423;28;20511;-53
2021/06/02 05:52:45;;;;;;;10.47;8.10;;;;;;;;;;5044540;28;20380;-53
2021/06/02 05:55:11;;;;;;;10.90;7.67;;;;;;;;;;5044322;28;20420;-53
2021/06/02 05:57:49;;;;;;;9.50;6.70;;;;;;;;;;5039391;28;20389;-53
2021/06/02 06:00:34;;;;;;;8.47;6.43;;;;;;;;;;5039073;28;20496;-53
2021/06/02 06:03:18;;;;;;;10.90;6.60;;;;;;;;;;5050274;28;20908;-53
2021/06/02 06:05:56;;;;;;;12.00;7.03;;;;;;;;;;5035568;28;20921;-53
2021/06/02 06:08:35;;;;;;;20.50;7.20;;;;;;;;;;5053112;28;20452;-52
2021/06/02 06:11:20;;;;;;;18.73;8.63;;;;;;;;;;5044505;28;20395;-54
2021/06/02 06:14:04;;;;;;;17.43;7.97;;;;;;;;;;5042300;28;20416;-53
2021/06/02 06:16:49;;;;;;;16.43;9.50;;;;;;;;;;5039460;28;20416;-52
2021/06/02 06:19:32;;;;;;;16.37;9.80;;;;;;;;;;5051705;28;20503;-54
2021/06/02 06:22:05;;;;;;;16.60;10.07;;;;;;;;;;5034346;28;20368;-53
2021/06/02 06:24:35;;;;;;;26.47;12.23;;;;;;;;;;5047686;28;20434;-54
2021/06/02 06:27:17;;;;;;;25.73;10.90;;;;;;;;;;5047306;28;20372;-54
2021/06/02 06:29:54;;;;;;;20.30;9.83;;;;;;;;;;5034400;28;20436;-54
2021/06/02 06:32:21;;;;;;;19.90;10.13;;;;;;;;;;5043619;28;20767;-53
2021/06/02 06:34:48;;;;;;;18.63;9.20;;;;;;;;;;5045565;28;21065;-53
2021/06/02 06:37:15;;;;;;;27.50;10.23;;;;;;;;;;5035177;28;20389;-53
2021/06/02 06:39:52;;;;;;;16.03;8.50;;;;;;;;;;5041436;28;20403;-53
2021/06/02 06:42:26;;;;;;;13.97;7.53;;;;;;;;;;5053692;28;20895;-53
2021/06/02 06:44:57;;;;;;;13.80;7.33;;;;;;;;;;5047487;28;20417;-53
2021/06/02 06:47:24;;;;;;;12.77;8.47;;;;;;;;;;5042250;28;20900;-53
2021/06/02 06:49:53;;;;;;;14.03;7.60;;;;;;;;;;5050736;28;20479;-53
2021/06/02 06:52:22;;;;;;;10.67;7.17;;;;;;;;;;5051506;28;20409;-53
2021/06/02 06:54:48;;;;;;;13.90;8.10;;;;;;;;;;5035898;28;20756;-54
2021/06/02 06:57:17;;;;;;;14.20;10.00;;;;;;;;;;5041431;28;20425;-54
2021/06/02 06:59:44;;;;;;;13.50;8.73;;;;;;;;;;5032610;28;20418;-54
2021/06/02 07:02:10;;;;;;;16.77;9.27;;;;;;;;;;5033297;28;20460;-54
2021/06/02 07:04:37;;;;;;;13.93;8.63;;;;;;;;;;5039347;28;20409;-54
2021/06/02 07:07:03;;;;;;;15.80;7.83;;;;;;;;;;5046286;28;20422;-53
2021/06/02 07:09:29;;;;;;;10.30;7.93;;;;;;;;;;5032814;28;20503;-54
2021/06/02 07:11:57;;;;;;;11.83;7.33;;;;;;;;;;5036890;28;20436;-54
2021/06/02 07:14:25;;;;;;;9.20;7.17;;;;;;;;;;5052766;28;20806;-54
2021/06/02 07:16:51;;;;;;;14.90;7.53;;;;;;;;;;5039030;28;20412;-54
2021/06/02 07:19:18;;;;;;;11.43;6.40;;;;;;;;;;5038814;28;21138;-54
2021/06/02 07:21:45;;;;;;;11.90;6.20;;;;;;;;;;5032637;28;20402;-53
2021/06/02 07:24:11;;;;;;;5.73;5.23;;;;;;;;;;5048982;28;20974;-54
2021/06/02 07:26:39;;;;;;;8.07;4.67;;;;;;;;;;5051415;28;20409;-54
2021/06/02 07:29:06;;;;;;;5.07;4.60;;;;;;;;;;5036890;28;20557;-54
2021/06/02 07:31:32;;;;;;;5.67;3.90;;;;;;;;;;5032476;28;20419;-54
2021/06/02 07:33:58;;;;;;;5.30;3.70;;;;;;;;;;5046620;28;20429;-54
2021/06/02 07:36:24;;;;;;;4.80;3.97;;;;;;;;;;5052524;28;20394;-54
2021/06/02 07:38:50;;;;;;;4.23;3.30;;;;;;;;;;5040274;28;20453;-54
2021/06/02 07:41:16;;;;;;;6.27;3.23;;;;;;;;;;5037502;28;20998;-53
2021/06/02 07:43:42;;;;;;;6.13;4.00;;;;;;;;;;5052141;28;20904;-54
2021/06/02 07:46:08;;;;;;;4.57;4.17;;;;;;;;;;5052196;28;20492;-53
2021/06/02 07:48:34;;;;;;;4.73;4.10;;;;;;;;;;5052022;28;20453;-54
2021/06/02 07:50:59;;;;;;;6.63;3.93;;;;;;;;;;5052115;28;20480;-54
2021/06/02 07:53:27;;;;;;;5.47;4.17;;;;;;;;;;5051109;28;20428;-53
2021/06/02 07:55:53;;;;;;;4.33;3.93;;;;;;;;;;5052258;28;20406;-54
2021/06/02 07:58:19;;;;;;;4.97;3.50;;;;;;;;;;5051930;28;21094;-53
2021/06/02 08:00:45;;;;;;;5.87;5.10;;;;;;;;;;5052301;28;20406;-54
2021/06/02 08:03:11;;;;;;;5.63;4.03;;;;;;;;;;5051977;28;20438;-54
2021/06/02 08:05:37;;;;;;;4.40;3.40;;;;;;;;;;5052029;28;20413;-53
2021/06/02 08:08:03;;;;;;;6.47;4.20;;;;;;;;;;5052010;28;20929;-54
2021/06/02 08:10:29;;;;;;;6.13;3.70;;;;;;;;;;5051854;28;20418;-54
2021/06/02 08:12:55;;;;;;;5.30;4.90;;;;;;;;;;5051629;28;20412;-53
2021/06/02 08:15:21;;;;;;;5.80;4.73;;;;;;;;;;5052189;28;20753;-54
2021/06/02 08:17:47;;;;;;;4.33;3.93;;;;;;;;;;5051780;28;20781;-54
2021/06/02 08:20:14;;;;;;;10.63;3.90;;;;;;;;;;5051709;28;20463;-54
2021/06/02 08:22:40;;;;;;;4.50;4.10;;;;;;;;;;5051404;28;20479;-54
2021/06/02 08:25:08;;;;;;;6.60;4.20;;;;;;;;;;5051519;28;20401;-54
2021/06/02 08:27:34;;;;;;;5.70;4.37;;;;;;;;;;5051465;28;20437;-54
2021/06/02 08:30:00;;;;;;;5.40;4.00;;;;;;;;;;5051239;28;20503;-54
2021/06/02 08:32:26;;;;;;;5.53;3.40;;;;;;;;;;5051269;28;20763;-54
2021/06/02 08:34:53;;;;;;;8.63;3.50;;;;;;;;;;5051082;28;20475;-54
2021/06/02 08:37:19;;;;;;;4.57;4.07;;;;;;;;;;5051315;28;20401;-54
2021/06/02 08:39:46;;;;;;;4.20;3.80;;;;;;;;;;5051190;28;20453;-54
2021/06/02 08:42:12;;;;;;;4.97;3.60;;;;;;;;;;5051070;28;20768;-54
2021/06/02 08:44:39;;;;;;;3.90;3.60;;;;;;;;;;5051071;28;20393;-54
2021/06/02 08:47:05;;;;;;;4.50;4.10;;;;;;;;;;5051155;28;20523;-54
2021/06/02 08:49:31;;;;;;;3.90;3.60;;;;;;;;;;5050812;28;20960;-54
2021/06/02 08:51:58;;;;;;;3.60;3.40;;;;;;;;;;5050955;28;20484;-54
2021/06/02 08:54:24;;;;;;;4.97;3.73;;;;;;;;;;5050981;28;20410;-54
2021/06/02 08:56:52;;;;;;;3.20;3.00;;;;;;;;;;5050774;28;20393;-54
2021/06/02 08:59:18;;;;;;;4.13;3.57;;;;;;;;;;5051043;28;20425;-54
2021/06/02 09:01:45;;;;;;;4.20;3.63;;;;;;;;;;5050596;28;20459;-54
2021/06/02 09:04:11;;;;;;;3.57;3.27;;;;;;;;;;5050692;28;20401;-54
2021/06/02 09:06:43;;;;;;;3.70;3.40;;;;;;;;;;5050806;28;20413;-54
2021/06/02 09:09:10;;;;;;;6.70;4.30;;;;;;;;;;5050752;28;20459;-54
2021/06/02 09:11:38;;;;;;;4.30;3.90;;;;;;;;;;5050354;28;20414;-54
2021/06/02 09:14:04;;;;;;;5.17;3.70;;;;;;;;;;5050753;28;20471;-54
2021/06/02 09:16:30;;;;;;;3.63;3.20;;;;;;;;;;5050613;28;20885;-55
2021/06/02 09:18:59;;;;;;;4.43;3.13;;;;;;;;;;5050630;28;20520;-54
2021/06/02 09:21:29;;;;;;;3.60;3.40;;;;;;;;;;5050327;28;20460;-54
2021/06/02 09:23:55;;;;;;;3.13;2.83;;;;;;;;;;5050535;28;20423;-54
2021/06/02 09:26:23;;;;;;;3.40;3.20;;;;;;;;;;5050508;28;20904;-54
2021/06/02 09:28:52;;;;;;;4.23;3.13;;;;;;;;;;5050685;28;20492;-54
2021/06/02 09:31:22;;;;;;;3.30;3.10;;;;;;;;;;5050316;28;20394;-54
2021/06/02 09:33:48;;;;;;;3.93;3.00;;;;;;;;;;5050368;28;20424;-54
2021/06/02 09:36:14;;;;;;;2.93;2.60;;;;;;;;;;5050360;28;20397;-54
2021/06/02 09:38:40;;;;;;;3.23;3.00;;;;;;;;;;5050455;28;20449;-54
2021/06/02 09:41:06;;;;;;;3.27;3.00;;;;;;;;;;5050354;28;20412;-54
2021/06/02 09:43:35;;;;;;;3.40;3.20;;;;;;;;;;5050282;28;20413;-54
2021/06/02 09:46:05;;;;;;;3.40;3.20;;;;;;;;;;5050391;28;20407;-54
2021/06/02 09:48:38;;;;;;;3.17;2.93;;;;;;;;;;5050365;28;20459;-54
2021/06/02 09:51:05;;;;;;;3.90;3.13;;;;;;;;;;5050344;28;20401;-54
2021/06/02 09:53:30;;;;;;;3.70;3.37;;;;;;;;;;5050205;28;20466;-54
2021/06/02 09:55:56;;;;;;;5.03;3.00;;;;;;;;;;5050263;28;20885;-54
2021/06/02 09:58:22;;;;;;;3.63;3.33;;;;;;;;;;5050362;28;20944;-55
2021/06/02 10:00:55;;;;;;;3.77;3.47;;;;;;;;;;5050292;28;20397;-54
2021/06/02 10:03:27;;;;;;;3.80;3.50;;;;;;;;;;5049999;28;20397;-54
2021/06/02 10:05:54;;;;;;;4.43;3.60;;;;;;;;;;5050365;28;20485;-55
2021/06/02 10:08:28;;;;;;;4.13;3.83;;;;;;;;;;5049734;28;20421;-54
2021/06/02 10:10:55;;;;;;;3.90;3.47;;;;;;;;;;5049967;28;20927;-54
2021/06/02 10:13:22;;;;;;;3.70;3.30;;;;;;;;;;5049794;28;20927;-54
2021/06/02 10:15:49;;;;;;;4.47;2.87;;;;;;;;;;5050936;28;21045;-55
2021/06/02 10:18:24;;;;;;;3.30;3.00;;;;;;;;;;5053866;28;20421;-54
2021/06/02 10:21:16;;;;;;;3.57;2.80;;;;;;;;;;5054327;28;20535;-54
2021/06/02 10:23:43;;;;;;;5.37;3.20;;;;;;;;;;5052928;28;20409;-54
2021/06/02 10:26:10;;;;;;;6.47;3.30;;;;;;;;;;5053931;28;20446;-54
2021/06/02 10:28:36;;;;;;;3.47;3.10;;;;;;;;;;5051957;28;20464;-54
2021/06/02 10:31:04;;;;;;;3.33;3.10;;;;;;;;;;5053645;28;20436;-55
2021/06/02 10:33:30;;;;;;;2.63;2.53;;;;;;;;;;5053144;28;20397;-55
2021/06/02 10:35:56;;;;;;;3.43;3.13;;;;;;;;;;5053655;28;20491;-55
2021/06/02 10:38:23;;;;;;;3.43;3.13;;;;;;;;;;5053456;28;20417;-55
2021/06/02 10:40:49;;;;;;;3.43;3.10;;;;;;;;;;5053577;28;20393;-54
2021/06/02 10:43:30;;;;;;;3.30;3.10;;;;;;;;;;5053381;28;21287;-55
2021/06/02 10:45:59;;;;;;;3.03;2.83;;;;;;;;;;5053712;28;20904;-54
2021/06/02 10:48:38;;;;;;;3.03;2.83;;;;;;;;;;5053810;28;20428;-55
2021/06/02 10:51:05;;;;;;;3.30;2.70;;;;;;;;;;5053983;28;20764;-55
2021/06/02 10:53:32;;;;;;;2.80;2.60;;;;;;;;;;5053795;28;20405;-55
2021/06/02 10:56:01;;;;;;;2.47;2.27;;;;;;;;;;5053977;28;20397;-55
2021/06/02 10:58:27;;;;;;;2.90;2.67;;;;;;;;;;5053715;28;20409;-55
2021/06/02 11:01:09;;;;;;;2.40;2.30;;;;;;;;;;5052252;28;20414;-55
2021/06/02 11:03:37;;;;;;;3.60;2.20;;;;;;;;;;5053583;28;20416;-55
2021/06/02 11:06:15;;;;;;;2.90;2.40;;;;;;;;;;5053281;28;20885;-55
2021/06/02 11:08:50;;;;;;;2.37;2.27;;;;;;;;;;5053714;28;20531;-55
2021/06/02 11:11:21;;;;;;;3.30;2.90;;;;;;;;;;5053921;28;20478;-55
2021/06/02 11:14:24;;;;;;;2.27;2.13;;;;;;;;;;5053996;28;20412;-55
2021/06/02 11:16:50;;;;;;;2.37;2.27;;;;;;;;;;5030651;28;20952;-55
2021/06/02 11:19:17;;;;;;;3.57;2.50;;;;;;;;;;5049190;28;20452;-55
2021/06/02 11:21:55;;;;;;;2.47;2.30;;;;;;;;;;5053169;28;20495;-56
2021/06/02 11:24:51;;;;;;;2.60;2.50;;;;;;;;;;5051802;28;20410;-55
2021/06/02 11:27:17;;;;;;;3.77;2.33;;;;;;;;;;5052047;28;20444;-55
2021/06/02 11:29:52;;;;;;;2.93;2.57;;;;;;;;;;5053210;28;20960;-55
2021/06/02 11:32:19;;;;;;;8.67;2.50;;;;;;;;;;5053105;28;20499;-55
2021/06/02 11:34:49;;;;;;;3.97;2.17;;;;;;;;;;5053613;28;20625;-55
2021/06/02 11:37:16;;;;;;;2.50;2.30;;;;;;;;;;5053729;28;20410;-55
2021/06/02 11:39:42;;;;;;;5.00;2.30;;;;;;;;;;5053620;28;20834;-55
2021/06/02 11:42:10;;;;;;;2.67;2.47;;;;;;;;;;5052625;28;20896;-55
2021/06/02 11:44:37;;;;;;;2.70;2.50;;;;;;;;;;5052431;28;20835;-55
2021/06/02 11:47:03;;;;;;;7.27;2.57;;;;;;;;;;5052448;28;20401;-55
2021/06/02 11:49:29;;;;;;;2.97;2.60;;;;;;;;;;5052348;28;20457;-55
2021/06/02 11:51:56;;;;;;;3.70;2.53;;;;;;;;;;5052134;28;20401;-55
2021/06/02 11:54:22;;;;;;;2.83;2.63;;;;;;;;;;5052299;28;20405;-55
2021/06/02 11:56:48;;;;;;;2.40;2.30;;;;;;;;;;5051897;28;20413;-56
2021/06/02 11:59:14;;;;;;;5.07;2.40;;;;;;;;;;5051276;28;20474;-55
2021/06/02 12:01:40;;;;;;;2.47;2.33;;;;;;;;;;5051578;28;20416;-55
2021/06/02 12:04:06;;;;;;;2.97;2.27;;;;;;;;;;5051849;28;20432;-55
2021/06/02 12:06:33;;;;;;;2.63;2.27;;;;;;;;;;5050833;28;20417;-55
2021/06/02 12:09:10;;;;;;;3.03;2.73;;;;;;;;;;5051620;28;20456;-55
2021/06/02 12:11:37;;;;;;;2.73;2.53;;;;;;;;;;5031467;28;20544;-55
2021/06/02 12:14:03;;;;;;;3.67;2.37;;;;;;;;;;5030222;28;20760;-56
2021/06/02 12:16:31;;;;;;;2.63;2.43;;;;;;;;;;5031555;28;20456;-56
2021/06/02 12:19:00;;;;;;;6.03;2.57;;;;;;;;;;5035213;28;20429;-55
2021/06/02 12:21:29;;;;;;;3.60;2.70;;;;;;;;;;5051644;28;20433;-55
2021/06/02 12:23:58;;;;;;;3.00;2.80;;;;;;;;;;5051458;28;20881;-55
2021/06/02 12:26:24;;;;;;;2.53;2.43;;;;;;;;;;5051392;28;20801;-55
2021/06/02 12:28:51;;;;;;;3.00;2.53;;;;;;;;;;5051483;28;20457;-55
2021/06/02 12:31:32;;;;;;;2.80;2.27;;;;;;;;;;5050760;28;20492;-55
2021/06/02 12:34:01;;;;;;;4.13;2.70;;;;;;;;;;5050524;28;20413;-55
2021/06/02 12:36:27;;;;;;;3.80;2.73;;;;;;;;;;5050987;28;20492;-55
2021/06/02 12:38:53;;;;;;;2.60;2.50;;;;;;;;;;5050147;28;20469;-55
2021/06/02 12:41:25;;;;;;;2.43;2.23;;;;;;;;;;5050572;28;20492;-55
2021/06/02 12:43:52;;;;;;;2.87;2.67;;;;;;;;;;5051189;28;20406;-56
2021/06/02 12:46:18;;;;;;;2.60;2.10;;;;;;;;;;5051346;28;20401;-55
2021/06/02 12:48:44;;;;;;;2.47;2.37;;;;;;;;;;5051198;28;20971;-56
2021/06/02 12:51:15;;;;;;;3.67;1.93;;;;;;;;;;5051138;28;20412;-56
2021/06/02 12:53:46;;;;;;;2.57;2.37;;;;;;;;;;5051324;28;20403;-56
2021/06/02 12:56:13;;;;;;;2.47;2.00;;;;;;;;;;5051036;28;20406;-55
2021/06/02 12:58:40;;;;;;;2.33;2.10;;;;;;;;;;5051102;28;20948;-56
2021/06/02 13:01:12;;;;;;;2.20;2.10;;;;;;;;;;5051239;28;20427;-55
2021/06/02 13:03:44;;;;;;;2.30;2.10;;;;;;;;;;5051143;28;20763;-55
2021/06/02 13:06:14;;;;;;;2.27;2.17;;;;;;;;;;5050995;28;20409;-55
2021/06/02 13:08:41;;;;;;;2.53;2.30;;;;;;;;;;5050815;28;20548;-55
2021/06/02 13:11:07;;;;;;;2.70;2.27;;;;;;;;;;5050611;28;20463;-55
2021/06/02 13:13:33;;;;;;;2.53;2.37;;;;;;;;;;5050537;28;20401;-55
2021/06/02 13:16:00;;;;;;;6.80;2.70;;;;;;;;;;5050812;28;20390;-55
2021/06/02 13:18:28;;;;;;;3.00;2.20;;;;;;;;;;5050741;28;20417;-55
2021/06/02 13:20:54;;;;;;;2.70;2.50;;;;;;;;;;5050418;28;20390;-55
2021/06/02 13:23:22;;;;;;;5.67;2.70;;;;;;;;;;5050468;28;20863;-55
2021/06/02 13:26:05;;;;;;;4.07;2.37;;;;;;;;;;5050720;28;20757;-55
2021/06/02 13:28:33;;;;;;;2.47;2.37;;;;;;;;;;5050477;28;20410;-55
2021/06/02 13:31:02;;;;;;;7.80;2.37;;;;;;;;;;5050796;28;20401;-55
2021/06/02 13:33:38;;;;;;;2.37;2.20;;;;;;;;;;5050361;28;20398;-55
2021/06/02 13:36:05;;;;;;;3.53;2.80;;;;;;;;;;5050581;28;20385;-55
2021/06/02 13:38:31;;;;;;;2.40;2.20;;;;;;;;;;5050698;28;20419;-55
2021/06/02 13:40:57;;;;;;;2.23;2.00;;;;;;;;;;5050802;28;20386;-55
2021/06/02 13:43:25;;;;;;;3.60;3.33;;;;;;;;;;5050360;28;20401;-55
2021/06/02 13:45:55;;;;;;;34.53;30.93;;;;;;;;;;5050868;28;20740;-55
2021/06/02 13:48:23;;;;;;;2.70;2.60;;;;;;;;;;5050925;28;20418;-55
2021/06/02 13:50:49;;;;;;;2.30;2.17;;;;;;;;;;5051501;28;20398;-55
2021/06/02 13:53:15;;;;;;;3.27;2.23;;;;;;;;;;5054591;28;20393;-55
2021/06/02 13:55:41;;;;;;;2.03;1.83;;;;;;;;;;5054886;28;20455;-55
2021/06/02 13:58:14;;;;;;;1.90;1.80;;;;;;;;;;5053776;28;20420;-55
2021/06/02 14:00:41;;;;;;;4.87;3.47;;;;;;;;;;5054317;28;20466;-55
2021/06/02 14:03:07;;;;;;;5.70;5.30;;;;;;;;;;5053843;28;20786;-55
2021/06/02 14:05:33;;;;;;;3.20;3.00;;;;;;;;;;5053549;28;20401;-55
2021/06/02 14:07:59;;;;;;;2.77;2.13;;;;;;;;;;5054385;28;20409;-55
2021/06/02 14:10:25;;;;;;;2.10;2.00;;;;;;;;;;5053948;28;20609;-55
2021/06/02 14:12:51;;;;;;;2.83;2.63;;;;;;;;;;5054431;28;20401;-56
2021/06/02 14:15:19;;;;;;;4.60;2.40;;;;;;;;;;5054649;28;20163;-54
2021/06/02 14:17:46;;;;;;;2.60;2.40;;;;;;;;;;5053544;28;20257;-54
2021/06/02 14:20:12;;;;;;;1.50;1.40;;;;;;;;;;5053747;28;20406;-54
2021/06/02 14:22:38;;;;;;;2.20;2.10;;;;;;;;;;5053375;28;20492;-55
2021/06/02 14:25:04;;;;;;;2.47;1.90;;;;;;;;;;5053456;28;20491;-54
2021/06/02 14:27:30;;;;;;;2.27;2.17;;;;;;;;;;5053541;28;20405;-54
2021/06/02 14:29:58;;;;;;;2.20;2.10;;;;;;;;;;5053302;28;20453;-54
2021/06/02 14:32:24;;;;;;;3.50;2.90;;;;;;;;;;5053341;28;20568;-54
2021/06/02 14:34:50;;;;;;;2.33;1.90;;;;;;;;;;5053504;28;20431;-54
2021/06/02 14:37:16;;;;;;;4.50;3.10;;;;;;;;;;5053441;28;20431;-54
2021/06/02 14:39:44;;;;;;;2.33;2.17;;;;;;;;;;5053287;28;20456;-55
2021/06/02 14:42:11;;;;;;;5.20;2.30;;;;;;;;;;5053033;28;20774;-55
2021/06/02 14:44:37;;;;;;;3.27;2.20;;;;;;;;;;5053148;28;20405;-54
2021/06/02 14:47:03;;;;;;;3.30;1.80;;;;;;;;;;5053155;28;20427;-54
2021/06/02 14:49:29;;;;;;;8.30;5.37;;;;;;;;;;5053279;28;20461;-54
2021/06/02 14:51:57;;;;;;;2.20;2.10;;;;;;;;;;5052952;28;20897;-54
2021/06/02 14:54:23;;;;;;;2.00;1.90;;;;;;;;;;5053153;28;20393;-54
2021/06/02 14:56:49;;;;;;;1.80;1.70;;;;;;;;;;5053010;28;20869;-54
2021/06/02 14:59:16;;;;;;;2.00;1.90;;;;;;;;;;5052969;28;20916;-54
2021/06/02 15:01:42;;;;;;;2.00;1.90;;;;;;;;;;5052563;28;20828;-54
2021/06/02 15:04:09;;;;;;;4.50;2.00;;;;;;;;;;5053140;28;20412;-54